createdAt,value
2022-09-26T00:06:36.201Z,0
2022-09-26T00:11:58.601Z,0
2022-09-26T00:17:21.329Z,0
2022-09-26T00:22:43.979Z,0
2022-09-26T00:28:09.983Z,0
2022-09-26T00:33:33.067Z,0
2022-09-26T00:38:55.599Z,0
2022-09-26T00:44:18.172Z,0
2022-09-26T00:49:40.798Z,0
2022-09-26T00:55:06.795Z,0
2022-09-26T01:00:29.445Z,0
2022-09-26T01:05:51.755Z,0
2022-09-26T01:11:27.940Z,0
2022-09-26T01:16:51.618Z,0
2022-09-26T01:22:14.383Z,0
2022-09-26T01:27:37.078Z,0
2022-09-26T01:33:00.316Z,0
2022-09-26T01:38:22.823Z,0
2022-09-26T01:43:55.694Z,0
2022-09-26T01:54:40.912Z,2
2022-09-26T02:00:03.577Z,0
2022-09-26T02:05:26.019Z,0
2022-09-26T02:10:48.538Z,0
2022-09-26T02:16:11.925Z,0
2022-09-26T02:21:34.462Z,0
2022-09-26T02:27:04.567Z,0
2022-09-26T02:32:27.241Z,0
2022-09-26T02:37:51.297Z,0
2022-09-26T02:43:13.646Z,0
2022-09-26T02:48:36.259Z,0
2022-09-26T02:53:58.660Z,0
2022-09-26T02:59:21.301Z,0
2022-09-26T03:04:56.068Z,0
2022-09-26T03:10:18.709Z,0
2022-09-26T03:26:36.488Z,0
2022-09-26T03:31:59.694Z,0
2022-09-26T03:42:50.065Z,0
2022-09-26T03:48:13.033Z,2
2022-09-26T03:53:35.434Z,0
2022-09-26T03:59:08.376Z,0
2022-09-26T04:04:31.417Z,3
2022-09-26T04:09:54.697Z,3
2022-09-26T04:15:17.817Z,0
2022-09-26T04:20:40.183Z,0
2022-09-26T04:26:10.056Z,0
2022-09-26T04:31:33.372Z,0
2022-09-26T04:36:56.659Z,0
2022-09-26T04:42:19.644Z,0
2022-09-26T04:47:49.467Z,0
2022-09-26T04:53:25.601Z,3
2022-09-26T04:58:48.277Z,0
2022-09-26T05:04:13.426Z,0
2022-09-26T05:09:36.670Z,0
2022-09-26T05:25:47.283Z,24
2022-09-26T05:31:10.248Z,24.8
2022-09-26T05:36:32.807Z,27.3
2022-09-26T05:42:04.623Z,34.6
2022-09-26T05:49:04.744Z,44.8
2022-09-26T05:59:31.074Z,129.3
2022-09-26T06:04:53.435Z,137
2022-09-26T06:10:16.180Z,153
2022-09-26T06:15:39.384Z,164.7
2022-09-26T06:21:01.787Z,170.8
2022-09-26T06:26:24.360Z,199.2
2022-09-26T06:31:52.255Z,212.6
2022-09-26T06:37:17.271Z,219.1
2022-09-26T06:42:39.773Z,187.4
2022-09-26T06:48:02.255Z,152.9
2022-09-26T06:53:24.845Z,131.9
2022-09-26T06:58:47.100Z,121.3
2022-09-26T07:04:12.036Z,106.6
2022-09-26T07:09:34.894Z,121.4
2022-09-26T07:14:57.288Z,127.1
2022-09-26T07:20:19.792Z,145.6
2022-09-26T07:25:42.282Z,178.8
2022-09-26T07:31:08.406Z,264.3
2022-09-26T07:41:56.618Z,437.1
2022-09-26T07:47:24.552Z,445.2
2022-09-26T07:52:47.107Z,405.4
2022-09-26T07:58:33.175Z,431.6
2022-09-26T08:03:55.863Z,559.8
2022-09-26T08:14:44.336Z,806.9
2022-09-26T08:25:34.755Z,618.9
2022-09-26T08:30:57.775Z,621.7
2022-09-26T08:41:55.826Z,734.2
2022-09-26T08:47:18.261Z,600.9
2022-09-26T08:52:42.920Z,510.3
2022-09-26T08:58:05.397Z,596.9
2022-09-26T09:03:31.087Z,678.2
2022-09-26T09:08:53.690Z,417.3
2022-09-26T09:14:25.297Z,393.3
2022-09-26T09:19:48.246Z,574.3
2022-09-26T09:25:10.862Z,454.8
2022-09-26T09:30:33.407Z,419
2022-09-26T09:52:13.062Z,657.7
2022-09-26T09:57:35.643Z,657.7
2022-09-26T10:03:00.580Z,676.7
2022-09-26T10:08:23.140Z,744.5
2022-09-26T10:13:48.071Z,951.2
2022-09-26T10:19:10.812Z,867.7
2022-09-26T10:24:33.121Z,933
2022-09-26T10:29:56.084Z,1292.8
2022-09-26T10:35:20.291Z,1654.3
2022-09-26T10:40:50.735Z,1419.6
2022-09-26T10:46:14.024Z,1809.6
2022-09-26T10:51:36.762Z,1254
2022-09-26T10:56:58.359Z,1003.1
2022-09-26T11:02:23.747Z,1116.4
2022-09-26T11:07:49.668Z,1282.4
2022-09-26T11:13:12.780Z,1539.9
2022-09-26T11:29:24.458Z,1170.6
2022-09-26T11:34:56.213Z,1145.5
2022-09-26T11:40:18.866Z,1176.4
2022-09-26T11:45:47.975Z,1111.6
2022-09-26T11:51:14.071Z,887.6
2022-09-26T11:56:36.087Z,606.5
2022-09-26T12:01:57.907Z,343.1
2022-09-26T12:07:22.225Z,330.2
2022-09-26T12:17:55.699Z,866.8
2022-09-26T12:23:20.864Z,1083.7
2022-09-26T12:28:43.912Z,1350.1
2022-09-26T12:34:16.176Z,2053.6
2022-09-26T12:39:40.484Z,1372.8
2022-09-26T12:45:02.868Z,1207.7
2022-09-26T12:50:25.819Z,899.2
2022-09-26T12:55:48.771Z,924.1
2022-09-26T13:01:16.006Z,900.9
2022-09-26T13:12:02.377Z,1167.7
2022-09-26T13:20:06.104Z,1481.4
2022-09-26T13:25:30.283Z,1041.8
2022-09-26T13:30:52.383Z,927.7
2022-09-26T13:36:14.645Z,722.2
2022-09-26T13:41:50.646Z,646.7
2022-09-26T13:47:12.793Z,474.4
2022-09-26T13:52:34.770Z,425.9
2022-09-26T14:03:20.473Z,708.7
2022-09-26T14:08:44.579Z,915.5
2022-09-26T14:14:07.938Z,677.4
2022-09-26T14:20:07.399Z,455.3
2022-09-26T14:25:30.744Z,576.2
2022-09-26T14:30:54.117Z,733.8
2022-09-26T14:36:39.628Z,862.9
2022-09-26T14:42:02.508Z,856.1
2022-09-26T14:47:25.038Z,817.4
2022-09-26T14:52:47.251Z,480.1
2022-09-26T14:58:11.777Z,476.8
2022-09-26T15:03:34.474Z,503.6
2022-09-26T15:08:57.217Z,583.3
2022-09-26T15:14:19.946Z,464.9
2022-09-26T15:19:42.104Z,173
2022-09-26T15:25:04.341Z,230
2022-09-26T15:30:37.248Z,307.6
2022-09-26T15:36:00.136Z,351.7
2022-09-26T15:41:22.994Z,319.3
2022-09-26T15:46:46.397Z,348.9
2022-09-26T15:52:09.082Z,276.7
2022-09-26T16:08:15.846Z,233.8
2022-09-26T16:13:38.463Z,208.8
2022-09-26T16:19:00.973Z,152.1
2022-09-26T16:24:23.204Z,97.9
2022-09-26T16:34:56.419Z,50.2
2022-09-26T16:40:19.223Z,65.8
2022-09-26T16:45:41.875Z,113.1
2022-09-26T16:51:04.315Z,129.3
2022-09-26T16:56:26.586Z,132.5
2022-09-26T17:01:49.483Z,126.1
2022-09-26T17:07:11.820Z,96.4
2022-09-26T17:12:46.199Z,62.8
2022-09-26T17:18:08.844Z,73.2
2022-09-26T17:23:42.818Z,66.5
2022-09-26T17:29:20.769Z,33.7
2022-09-26T17:34:52.603Z,6
2022-09-26T17:40:15.437Z,0
2022-09-26T17:46:04.434Z,0
2022-09-26T17:51:27.397Z,0
2022-09-26T18:07:41.148Z,0
2022-09-26T18:13:03.924Z,0
2022-09-26T18:18:26.584Z,0
2022-09-26T18:23:49.134Z,0
2022-09-26T18:29:11.631Z,0
2022-09-26T18:34:34.230Z,0
2022-09-26T18:40:04.808Z,0
2022-09-26T18:51:02.982Z,0
2022-09-26T18:56:26.090Z,0
2022-09-26T19:01:49.558Z,0
2022-09-26T19:12:53.213Z,0
2022-09-26T19:18:15.577Z,0
2022-09-26T19:23:37.883Z,0
2022-09-26T19:29:02.626Z,0
2022-09-26T19:34:33.208Z,0
2022-09-26T19:39:55.677Z,0
2022-09-26T19:56:11.231Z,0
2022-09-26T20:01:34.193Z,0
2022-09-26T20:06:56.988Z,0
2022-09-26T20:12:19.770Z,0
2022-09-26T20:17:42.162Z,0
2022-09-26T20:23:06.472Z,0
2022-09-26T20:28:29.448Z,0
2022-09-26T20:33:51.671Z,0
2022-09-26T20:39:14.001Z,0
2022-09-26T20:44:42.439Z,0
2022-09-26T20:50:06.139Z,0
2022-09-26T20:55:28.480Z,0
2022-09-26T21:00:51.561Z,0
2022-09-26T21:06:14.290Z,0
2022-09-26T21:11:36.672Z,0
2022-09-26T21:16:59.670Z,0
2022-09-26T21:22:22.334Z,0
2022-09-26T21:27:44.588Z,0
2022-09-26T21:38:29.648Z,0
2022-09-26T21:43:55.000Z,0
2022-09-26T21:49:19.891Z,0
2022-09-26T21:54:42.211Z,0
2022-09-26T22:00:08.687Z,0
2022-09-26T22:05:31.422Z,0
2022-09-26T22:10:54.026Z,0
2022-09-26T22:16:16.556Z,0
2022-09-26T22:21:39.275Z,0
2022-09-26T22:27:05.041Z,1
2022-09-26T22:32:27.705Z,0
2022-09-26T22:37:53.469Z,0
2022-09-26T22:43:16.830Z,0
2022-09-26T22:48:39.442Z,0
2022-09-26T22:54:01.954Z,0
2022-09-26T22:59:24.387Z,0
2022-09-26T23:10:19.008Z,0
2022-09-26T23:15:41.640Z,0
2022-09-26T23:21:12.962Z,0
2022-09-26T23:26:37.822Z,0
2022-09-26T23:32:00.620Z,0
2022-09-26T23:42:47.760Z,0
2022-09-26T23:48:10.399Z,0
2022-09-26T23:53:32.926Z,0
2022-09-26T23:58:59.189Z,0
